Time;durP1;ratioP1;P1;durP2;ratioP2;P2;SDS_P1;SDS_P2;PMS_P1;PMS_P2;Temp;Humidity;BMP_temperature;BMP_pressure;BME280_temperature;BME280_humidity;BME280_pressure;Samples;Min_cycle;Max_cycle;Signal;HPM_P1;HPM_P2
2024/01/03 00:01:08;;;;;;;;;;;9.70;89.00;;;;;;5078058;28;20384;-62
2024/01/03 00:03:41;;;;;;;;;;;9.70;89.00;;;;;;5089330;28;19978;-71
2024/01/03 00:06:15;;;;;;;;;;;9.70;89.10;;;;;;5086326;28;19931;-71
2024/01/03 00:08:48;;;;;;;;;;;9.70;89.10;;;;;;5085740;28;19981;-71
2024/01/03 00:11:22;;;;;;;;;;;9.70;89.10;;;;;;5088186;28;19983;-70
2024/01/03 00:14:22;;;;;;;;;;;9.70;89.30;;;;;;5089892;28;19928;-71
2024/01/03 00:16:59;;;;;;;;;;;9.70;89.50;;;;;;5087177;28;19928;-71
2024/01/03 00:19:34;;;;;;;;;;;9.70;89.60;;;;;;5087694;28;19964;-71
2024/01/03 00:22:10;;;;;;;;;;;9.70;89.70;;;;;;5109078;28;19928;-71
2024/01/03 00:24:45;;;;;;;;;;;9.70;89.80;;;;;;5103699;28;19981;-71
2024/01/03 00:27:19;;;;;;;;;;;9.70;89.70;;;;;;5102243;28;20393;-70
2024/01/03 00:29:54;;;;;;;;;;;9.70;89.70;;;;;;5090826;27;19971;-72
2024/01/03 00:32:27;;;;;;;;;;;9.60;89.80;;;;;;5107665;28;20288;-70
2024/01/03 00:35:00;;;;;;;;;;;9.60;89.90;;;;;;5088122;28;20378;-71
2024/01/03 00:37:34;;;;;;;;;;;9.60;90.00;;;;;;5087153;28;20014;-69
2024/01/03 00:40:28;;;;;;;;;;;9.60;90.10;;;;;;5104976;28;19928;-70
2024/01/03 00:43:01;;;;;;;;;;;9.60;90.20;;;;;;5099247;27;19928;-71
2024/01/03 00:45:35;;;;;;;;;;;9.60;90.40;;;;;;5108688;28;19928;-70
2024/01/03 00:48:09;;;;;;;;;;;9.50;90.50;;;;;;5080473;28;20451;-72
2024/01/03 00:50:42;;;;;;;;;;;9.50;90.60;;;;;;5089386;28;19924;-71
2024/01/03 00:53:16;;;;;;;;;;;9.50;90.70;;;;;;5080369;28;20007;-70
2024/01/03 00:55:50;;;;;;;;;;;9.40;90.80;;;;;;5083260;28;19931;-70
2024/01/03 00:58:23;;;;;;;;;;;9.40;90.80;;;;;;5089688;28;19928;-72
2024/01/03 01:00:58;;;;;;;;;;;9.40;90.90;;;;;;5087343;28;19924;-70
2024/01/03 01:03:32;;;;;;;;;;;9.40;91.10;;;;;;5087633;28;20042;-69
2024/01/03 01:06:06;;;;;;;;;;;9.40;91.00;;;;;;5108817;27;19928;-70
2024/01/03 01:08:39;;;;;;;;;;;9.40;91.10;;;;;;5107442;28;19928;-72
2024/01/03 01:11:12;;;;;;;;;;;9.40;91.10;;;;;;5075707;28;20022;-71
2024/01/03 01:13:45;;;;;;;;;;;9.40;91.20;;;;;;5097882;28;19923;-61
2024/01/03 01:16:19;;;;;;;;;;;9.40;91.20;;;;;;5099248;28;20431;-60
2024/01/03 01:18:53;;;;;;;;;;;9.40;91.20;;;;;;5092079;28;20345;-60
2024/01/03 01:21:26;;;;;;;;;;;9.40;91.30;;;;;;5087655;28;19924;-62
2024/01/03 01:23:53;;;;;;;;;;;9.40;91.40;;;;;;5104789;28;19932;-60
2024/01/03 01:26:26;;;;;;;;;;;9.40;91.30;;;;;;5087639;28;19924;-59
2024/01/03 01:28:59;;;;;;;;;;;9.40;91.40;;;;;;5108299;27;19924;-60
2024/01/03 01:31:34;;;;;;;;;;;9.40;91.30;;;;;;5107776;28;20046;-61
2024/01/03 01:34:08;;;;;;;;;;;9.40;91.30;;;;;;5087007;28;20019;-62
2024/01/03 01:36:42;;;;;;;;;;;9.40;91.20;;;;;;5087960;28;19932;-61
2024/01/03 01:39:15;;;;;;;;;;;9.40;91.10;;;;;;5088427;28;20019;-60
2024/01/03 01:41:48;;;;;;;;;;;9.40;91.00;;;;;;5105309;28;19932;-59
2024/01/03 01:44:15;;;;;;;;;;;9.40;90.90;;;;;;5090566;28;19939;-60
2024/01/03 01:46:54;;;;;;;;;;;9.40;90.90;;;;;;5088868;28;19932;-62
2024/01/03 01:49:27;;;;;;;;;;;9.40;90.90;;;;;;5084286;28;19924;-61
2024/01/03 01:52:00;;;;;;;;;;;9.40;90.70;;;;;;5113484;28;19930;-62
2024/01/03 01:54:33;;;;;;;;;;;9.40;90.70;;;;;;5086452;28;20306;-62
2024/01/03 01:57:06;;;;;;;;;;;9.40;90.60;;;;;;5093959;28;19932;-61
2024/01/03 01:59:41;;;;;;;;;;;9.40;90.50;;;;;;5073489;28;19932;-61
2024/01/03 02:02:16;;;;;;;;;;;9.40;90.40;;;;;;5086776;28;19928;-62
2024/01/03 02:04:49;;;;;;;;;;;9.40;90.40;;;;;;5086160;28;20402;-61
2024/01/03 02:07:23;;;;;;;;;;;9.40;90.40;;;;;;5091517;28;19934;-60
2024/01/03 02:09:57;;;;;;;;;;;9.40;90.30;;;;;;5082373;28;20016;-62
2024/01/03 02:12:30;;;;;;;;;;;9.40;90.20;;;;;;5106260;28;19939;-60
2024/01/03 02:15:03;;;;;;;;;;;9.40;90.20;;;;;;5086238;28;19924;-61
2024/01/03 02:17:38;;;;;;;;;;;9.40;90.20;;;;;;5107191;28;19931;-61
2024/01/03 02:20:14;;;;;;;;;;;9.40;90.20;;;;;;5087164;28;19977;-62
2024/01/03 02:22:48;;;;;;;;;;;9.40;90.20;;;;;;5086367;28;19955;-60
2024/01/03 02:25:21;;;;;;;;;;;9.40;90.30;;;;;;5088857;28;20401;-64
2024/01/03 02:27:54;;;;;;;;;;;9.40;90.30;;;;;;5080593;28;20290;-64
2024/01/03 02:30:27;;;;;;;;;;;9.40;90.40;;;;;;5087249;28;19970;-65
2024/01/03 02:33:00;;;;;;;;;;;9.40;90.40;;;;;;5090430;28;19934;-64
2024/01/03 02:35:33;;;;;;;;;;;9.40;90.40;;;;;;5086076;28;19928;-65
2024/01/03 02:38:07;;;;;;;;;;;9.40;90.40;;;;;;5087924;28;19924;-66
2024/01/03 02:40:41;;;;;;;;;;;9.40;90.30;;;;;;5087460;28;19997;-64
2024/01/03 02:43:14;;;;;;;;;;;9.30;90.40;;;;;;5089286;28;19959;-63
2024/01/03 02:45:47;;;;;;;;;;;9.40;90.20;;;;;;5086900;28;19932;-65
2024/01/03 02:48:20;;;;;;;;;;;9.40;90.10;;;;;;5087735;28;19932;-66
2024/01/03 02:50:53;;;;;;;;;;;9.30;90.00;;;;;;5087528;28;19947;-65
2024/01/03 02:53:28;;;;;;;;;;;9.30;89.80;;;;;;5088257;28;20447;-65
2024/01/03 02:56:01;;;;;;;;;;;9.30;89.70;;;;;;5107033;28;19923;-64
2024/01/03 02:58:28;;;;;;;;;;;9.30;89.90;;;;;;5108109;28;19939;-63
2024/01/03 03:01:01;;;;;;;;;;;9.30;89.70;;;;;;5109760;28;19923;-63
2024/01/03 03:03:34;;;;;;;;;;;9.30;89.60;;;;;;5109166;28;19962;-64
2024/01/03 03:06:08;;;;;;;;;;;9.30;89.60;;;;;;5109971;28;19984;-63
2024/01/03 03:08:42;;;;;;;;;;;9.30;89.50;;;;;;5110082;28;19943;-65
2024/01/03 03:11:15;;;;;;;;;;;9.30;89.40;;;;;;5104125;28;19935;-64
2024/01/03 03:13:48;;;;;;;;;;;9.30;89.40;;;;;;5110293;28;19938;-65
2024/01/03 03:16:21;;;;;;;;;;;9.30;89.30;;;;;;5110696;28;19932;-64
2024/01/03 03:18:54;;;;;;;;;;;9.30;89.40;;;;;;5111371;28;19934;-65
2024/01/03 03:21:27;;;;;;;;;;;9.30;89.40;;;;;;5107804;28;19971;-65
2024/01/03 03:24:02;;;;;;;;;;;9.30;89.30;;;;;;5105480;28;19932;-65
2024/01/03 03:26:42;;;;;;;;;;;9.30;89.30;;;;;;5104561;28;19932;-65
2024/01/03 03:29:15;;;;;;;;;;;9.30;89.20;;;;;;5109808;28;19924;-62
2024/01/03 03:31:48;;;;;;;;;;;9.30;89.30;;;;;;5109953;28;19924;-64
2024/01/03 03:34:21;;;;;;;;;;;9.30;89.20;;;;;;5109683;28;19930;-73
2024/01/03 03:36:54;;;;;;;;;;;9.30;89.20;;;;;;5107998;28;19958;-70
2024/01/03 03:39:35;;;;;;;;;;;9.30;89.10;;;;;;5109848;28;19924;-70
2024/01/03 03:42:08;;;;;;;;;;;9.30;89.10;;;;;;5087890;28;20727;-71
2024/01/03 03:44:41;;;;;;;;;;;9.30;89.10;;;;;;5084161;28;20086;-70
2024/01/03 03:47:14;;;;;;;;;;;9.30;89.10;;;;;;5088435;28;19928;-71
2024/01/03 03:49:47;;;;;;;;;;;9.30;89.00;;;;;;5085621;28;20023;-69
2024/01/03 03:52:20;;;;;;;;;;;9.30;89.00;;;;;;5088154;28;19928;-71
2024/01/03 03:54:55;;;;;;;;;;;9.30;89.00;;;;;;5087224;28;19938;-70
2024/01/03 03:57:27;;;;;;;;;;;9.30;89.00;;;;;;5084716;28;19935;-70
2024/01/03 04:00:01;;;;;;;;;;;9.30;89.00;;;;;;5106385;27;19927;-71
2024/01/03 04:02:40;;;;;;;;;;;9.30;88.90;;;;;;5106155;27;19931;-71
2024/01/03 04:05:14;;;;;;;;;;;9.30;88.80;;;;;;5109989;28;19924;-70
2024/01/03 04:07:47;;;;;;;;;;;9.30;88.90;;;;;;5108789;28;19957;-71
2024/01/03 04:10:22;;;;;;;;;;;9.20;88.80;;;;;;5110554;28;19983;-70
2024/01/03 04:12:56;;;;;;;;;;;9.30;88.80;;;;;;5108509;28;19967;-69
2024/01/03 04:15:29;;;;;;;;;;;9.30;88.80;;;;;;5100842;28;20410;-71
2024/01/03 04:17:56;;;;;;;;;;;9.30;88.80;;;;;;5108962;27;19931;-69
2024/01/03 04:20:29;;;;;;;;;;;9.30;88.60;;;;;;5105269;28;19939;-71
2024/01/03 04:23:02;;;;;;;;;;;9.30;88.70;;;;;;5086487;28;19931;-71
2024/01/03 04:25:37;;;;;;;;;;;9.30;88.60;;;;;;5087900;28;19943;-70
2024/01/03 04:28:10;;;;;;;;;;;9.30;88.50;;;;;;5087374;28;19928;-70
2024/01/03 04:30:37;;;;;;;;;;;9.30;88.50;;;;;;5084072;28;20014;-71
2024/01/03 04:33:10;;;;;;;;;;;9.30;88.30;;;;;;5087962;28;19975;-70
2024/01/03 04:35:45;;;;;;;;;;;9.30;88.30;;;;;;5087591;28;19924;-71
2024/01/03 04:38:18;;;;;;;;;;;9.30;88.20;;;;;;5086066;28;19928;-71
2024/01/03 04:40:53;;;;;;;;;;;9.30;88.00;;;;;;5084670;28;20383;-69
2024/01/03 04:43:26;;;;;;;;;;;9.30;88.00;;;;;;5087216;28;19928;-70
2024/01/03 04:46:00;;;;;;;;;;;9.30;87.60;;;;;;5095440;28;20438;-61
2024/01/03 04:48:33;;;;;;;;;;;9.40;87.50;;;;;;5087886;28;19935;-63
2024/01/03 04:51:06;;;;;;;;;;;9.30;87.50;;;;;;5089561;28;19963;-61
2024/01/03 04:53:39;;;;;;;;;;;9.40;87.70;;;;;;5087606;27;19927;-61
2024/01/03 04:56:14;;;;;;;;;;;9.30;87.60;;;;;;5088734;28;19981;-61
2024/01/03 04:58:47;;;;;;;;;;;9.30;87.80;;;;;;5085894;28;19997;-60
2024/01/03 05:01:20;;;;;;;;;;;9.30;87.90;;;;;;5088096;28;19924;-60
2024/01/03 05:03:53;;;;;;;;;;;9.20;88.20;;;;;;5089045;28;19936;-61
2024/01/03 05:06:26;;;;;;;;;;;9.20;88.30;;;;;;5085808;28;19969;-60
2024/01/03 05:08:59;;;;;;;;;;;9.20;88.40;;;;;;5085292;28;19935;-60
2024/01/03 05:11:34;;;;;;;;;;;9.20;88.50;;;;;;5086114;28;19930;-61
2024/01/03 05:14:07;;;;;;;;;;;9.20;88.60;;;;;;5108218;28;19928;-61
2024/01/03 05:16:41;;;;;;;;;;;9.20;88.60;;;;;;5099850;28;19982;-60
2024/01/03 05:19:14;;;;;;;;;;;9.20;88.60;;;;;;5107991;28;19943;-61
2024/01/03 05:21:47;;;;;;;;;;;9.20;88.60;;;;;;5106475;28;19955;-60
2024/01/03 05:24:21;;;;;;;;;;;9.20;88.50;;;;;;5104923;28;19932;-60
2024/01/03 05:26:56;;;;;;;;;;;9.20;88.50;;;;;;5105517;28;19928;-60
2024/01/03 05:29:28;;;;;;;;;;;9.20;88.40;;;;;;5107462;28;19930;-61
2024/01/03 05:32:01;;;;;;;;;;;9.20;88.40;;;;;;5105727;28;19931;-61
2024/01/03 05:34:34;;;;;;;;;;;9.20;88.30;;;;;;5105472;28;19930;-62
2024/01/03 05:37:07;;;;;;;;;;;9.20;88.30;;;;;;5104429;28;19930;-59
2024/01/03 05:39:40;;;;;;;;;;;9.20;88.30;;;;;;5106870;28;20290;-61
2024/01/03 05:42:15;;;;;;;;;;;9.20;88.20;;;;;;5106948;28;19951;-62
2024/01/03 05:44:48;;;;;;;;;;;9.20;88.30;;;;;;5089325;28;20419;-61
2024/01/03 05:47:21;;;;;;;;;;;9.20;88.30;;;;;;5085117;28;19938;-60
2024/01/03 05:49:54;;;;;;;;;;;9.20;88.30;;;;;;5088755;28;20424;-60
2024/01/03 05:52:27;;;;;;;;;;;9.20;88.30;;;;;;5107454;28;20162;-62
2024/01/03 05:54:55;;;;;;;;;;;9.20;88.30;;;;;;5108780;28;19923;-71
2024/01/03 05:57:30;;;;;;;;;;;9.20;88.20;;;;;;5107475;28;19932;-70
2024/01/03 06:00:04;;;;;;;;;;;9.30;88.20;;;;;;5107534;28;19931;-71
2024/01/03 06:02:44;;;;;;;;;;;9.30;88.30;;;;;;5104112;28;19928;-70
2024/01/03 06:05:18;;;;;;;;;;;9.20;88.20;;;;;;5108213;28;19924;-71
2024/01/03 06:07:51;;;;;;;;;;;9.30;88.30;;;;;;5105542;28;20026;-71
2024/01/03 06:10:24;;;;;;;;;;;9.20;88.30;;;;;;5107015;28;19930;-71
2024/01/03 06:12:59;;;;;;;;;;;9.20;88.20;;;;;;5104863;28;20397;-72
2024/01/03 06:15:39;;;;;;;;;;;9.20;88.20;;;;;;5103389;27;19972;-70
2024/01/03 06:18:13;;;;;;;;;;;9.20;88.10;;;;;;5104744;28;20417;-71
2024/01/03 06:20:46;;;;;;;;;;;9.20;88.00;;;;;;5104926;28;19955;-71
2024/01/03 06:23:19;;;;;;;;;;;9.20;88.10;;;;;;5106690;28;19928;-70
2024/01/03 06:25:53;;;;;;;;;;;9.20;88.30;;;;;;5094187;28;19928;-70
2024/01/03 06:28:28;;;;;;;;;;;9.20;88.30;;;;;;5089197;28;19946;-71
2024/01/03 06:31:02;;;;;;;;;;;9.20;88.40;;;;;;5107820;27;19927;-70
2024/01/03 06:33:35;;;;;;;;;;;9.20;88.40;;;;;;5108415;28;19934;-69
2024/01/03 06:36:08;;;;;;;;;;;9.20;88.40;;;;;;5110353;28;19930;-70
2024/01/03 06:38:41;;;;;;;;;;;9.20;88.30;;;;;;5107051;28;20382;-71
2024/01/03 06:41:14;;;;;;;;;;;9.20;88.40;;;;;;5108283;28;19951;-70
2024/01/03 06:43:49;;;;;;;;;;;9.20;88.40;;;;;;5110304;28;19935;-69
2024/01/03 06:46:25;;;;;;;;;;;9.20;88.40;;;;;;5108015;27;20014;-70
2024/01/03 06:48:58;;;;;;;;;;;9.20;88.30;;;;;;5088381;28;19928;-70
2024/01/03 06:51:31;;;;;;;;;;;9.20;88.30;;;;;;5088651;28;19939;-71
2024/01/03 06:54:04;;;;;;;;;;;9.20;88.30;;;;;;5091736;28;19928;-71
2024/01/03 06:56:37;;;;;;;;;;;9.20;88.20;;;;;;5086971;28;19935;-71
2024/01/03 06:59:12;;;;;;;;;;;9.20;88.10;;;;;;5108243;28;20336;-71
2024/01/03 07:01:45;;;;;;;;;;;9.20;88.10;;;;;;5107970;28;19963;-70
2024/01/03 07:04:21;;;;;;;;;;;9.20;88.10;;;;;;5108238;28;19931;-70
2024/01/03 07:06:55;;;;;;;;;;;9.30;88.00;;;;;;5108641;28;19923;-71
2024/01/03 07:09:34;;;;;;;;;;;9.20;88.00;;;;;;4809716;27;8412485;-70
2024/01/03 07:12:14;;;;;;;;;;;9.30;87.90;;;;;;5108616;28;19977;-71
2024/01/03 07:14:49;;;;;;;;;;;9.30;87.80;;;;;;5107630;28;19938;-70
2024/01/03 07:17:22;;;;;;;;;;;9.20;87.70;;;;;;5106853;27;19938;-70
2024/01/03 07:19:55;;;;;;;;;;;9.20;87.60;;;;;;5109069;28;20039;-71
2024/01/03 07:22:28;;;;;;;;;;;9.30;87.50;;;;;;5109657;27;19950;-70
2024/01/03 07:25:01;;;;;;;;;;;9.30;87.20;;;;;;5108834;28;20030;-72
2024/01/03 07:27:34;;;;;;;;;;;9.30;87.20;;;;;;5106887;28;19939;-70
2024/01/03 07:30:09;;;;;;;;;;;9.30;87.10;;;;;;5108830;27;19928;-70
2024/01/03 07:32:42;;;;;;;;;;;9.30;87.10;;;;;;5105505;28;20018;-71
2024/01/03 07:35:16;;;;;;;;;;;9.40;86.90;;;;;;5108035;28;19976;-70
2024/01/03 07:37:49;;;;;;;;;;;9.40;86.80;;;;;;5109344;27;19999;-69
2024/01/03 07:40:22;;;;;;;;;;;9.40;86.80;;;;;;5108422;27;20019;-70
2024/01/03 07:42:56;;;;;;;;;;;9.40;86.80;;;;;;5108267;28;19928;-71
2024/01/03 07:45:31;;;;;;;;;;;9.40;86.70;;;;;;5108452;27;19923;-71
2024/01/03 07:48:05;;;;;;;;;;;9.40;86.50;;;;;;5107918;27;19950;-69
2024/01/03 07:50:39;;;;;;;;;;;9.50;86.40;;;;;;5107357;28;19924;-70
2024/01/03 07:53:12;;;;;;;;;;;9.50;86.50;;;;;;5107583;28;19987;-70
2024/01/03 07:55:45;;;;;;;;;;;9.40;86.40;;;;;;5109712;28;19924;-71
2024/01/03 07:58:19;;;;;;;;;;;9.40;86.60;;;;;;5109281;28;20011;-70
2024/01/03 08:00:53;;;;;;;;;;;9.40;86.80;;;;;;5106147;28;19923;-70
2024/01/03 08:03:26;;;;;;;;;;;9.40;87.00;;;;;;5091746;28;19924;-71
2024/01/03 08:05:59;;;;;;;;;;;9.40;87.20;;;;;;5107792;28;20010;-70
2024/01/03 08:08:33;;;;;;;;;;;9.40;87.30;;;;;;5106728;28;19932;-71
2024/01/03 08:11:06;;;;;;;;;;;9.40;87.40;;;;;;5100655;28;19931;-71
2024/01/03 08:13:39;;;;;;;;;;;9.40;87.50;;;;;;5110178;27;20006;-62
2024/01/03 08:16:15;;;;;;;;;;;9.40;87.60;;;;;;5106082;28;19927;-62
2024/01/03 08:18:47;;;;;;;;;;;9.40;87.80;;;;;;5106325;27;20022;-61
2024/01/03 08:21:20;;;;;;;;;;;9.40;87.90;;;;;;5108364;27;20002;-61
2024/01/03 08:23:53;;;;;;;;;;;9.30;88.10;;;;;;5108408;28;19932;-61
2024/01/03 08:26:26;;;;;;;;;;;9.30;88.30;;;;;;5104491;28;19934;-62
2024/01/03 08:28:59;;;;;;;;;;;9.40;88.30;;;;;;5107594;27;19927;-65
2024/01/03 08:31:34;;;;;;;;;;;9.40;88.40;;;;;;5091832;28;20343;-61
2024/01/03 08:34:07;;;;;;;;;;;9.40;88.50;;;;;;5108031;28;19925;-61
2024/01/03 08:36:41;;;;;;;;;;;9.40;88.60;;;;;;5105877;27;20358;-62
2024/01/03 08:39:15;;;;;;;;;;;9.30;88.70;;;;;;5090100;28;19963;-61
2024/01/03 08:41:48;;;;;;;;;;;9.40;88.80;;;;;;5107456;27;19924;-61
2024/01/03 08:44:21;;;;;;;;;;;9.40;88.90;;;;;;5105606;28;19927;-62
2024/01/03 08:46:56;;;;;;;;;;;9.40;88.90;;;;;;5107771;27;19927;-62
2024/01/03 08:49:29;;;;;;;;;;;9.30;89.10;;;;;;5108404;28;19928;-62
2024/01/03 08:52:03;;;;;;;;;;;9.30;89.10;;;;;;5087024;28;19928;-61
2024/01/03 08:54:35;;;;;;;;;;;9.30;89.30;;;;;;5080578;28;19932;-63
2024/01/03 08:57:09;;;;;;;;;;;9.30;89.50;;;;;;5087616;28;19951;-63
2024/01/03 08:59:41;;;;;;;;;;;9.30;89.60;;;;;;5085614;28;19935;-62
2024/01/03 09:02:16;;;;;;;;;;;9.40;89.60;;;;;;5089555;28;19935;-62
2024/01/03 09:04:49;;;;;;;;;;;9.30;89.70;;;;;;5086957;28;19924;-62
2024/01/03 09:07:35;;;;;;;;;;;9.30;89.80;;;;;;5087523;28;19931;-62
2024/01/03 09:10:15;;;;;;;;;;;9.40;89.70;;;;;;5085699;28;20010;-62
2024/01/03 09:12:48;;;;;;;;;;;9.50;89.70;;;;;;5084045;28;20050;-62
2024/01/03 09:15:21;;;;;;;;;;;9.60;89.50;;;;;;5087316;28;19928;-61
2024/01/03 09:17:56;;;;;;;;;;;9.60;89.40;;;;;;5084810;28;19932;-62
2024/01/03 09:20:29;;;;;;;;;;;9.70;89.30;;;;;;5087423;28;20027;-61
2024/01/03 09:23:02;;;;;;;;;;;9.70;89.10;;;;;;5108179;28;20438;-62
2024/01/03 09:25:36;;;;;;;;;;;9.70;89.00;;;;;;5105771;28;19942;-57
2024/01/03 09:28:10;;;;;;;;;;;9.70;88.80;;;;;;5105633;27;19927;-57
2024/01/03 09:30:44;;;;;;;;;;;9.70;88.50;;;;;;5097334;28;19928;-58
2024/01/03 09:33:18;;;;;;;;;;;9.70;88.30;;;;;;5089130;28;19927;-58
2024/01/03 09:35:51;;;;;;;;;;;9.80;88.20;;;;;;5082574;28;19935;-59
2024/01/03 09:38:25;;;;;;;;;;;9.90;88.30;;;;;;5087692;28;20022;-59
2024/01/03 09:40:59;;;;;;;;;;;9.90;88.00;;;;;;5106088;28;19931;-59
2024/01/03 09:43:25;;;;;;;;;;;9.90;88.00;;;;;;5106284;28;19996;-58
2024/01/03 09:45:59;;;;;;;;;;;9.90;87.90;;;;;;5107204;28;20438;-57
2024/01/03 09:48:33;;;;;;;;;;;9.90;87.70;;;;;;5106773;28;19928;-57
2024/01/03 09:51:07;;;;;;;;;;;9.90;87.80;;;;;;5101800;28;20372;-58
2024/01/03 09:53:41;;;;;;;;;;;9.90;87.80;;;;;;5086402;28;19952;-58
2024/01/03 09:56:13;;;;;;;;;;;9.90;87.60;;;;;;5086276;28;20341;-58
2024/01/03 09:58:47;;;;;;;;;;;10.00;87.60;;;;;;5088199;28;20394;-57
2024/01/03 10:01:20;;;;;;;;;;;10.00;87.30;;;;;;5088821;28;19931;-59
2024/01/03 10:03:54;;;;;;;;;;;10.10;87.20;;;;;;5100451;28;19998;-58
2024/01/03 10:06:27;;;;;;;;;;;10.20;86.80;;;;;;5110926;28;20392;-58
2024/01/03 10:09:01;;;;;;;;;;;10.20;86.60;;;;;;5110397;28;19928;-56
2024/01/03 10:11:34;;;;;;;;;;;10.30;86.30;;;;;;5110675;28;19924;-59
2024/01/03 10:14:14;;;;;;;;;;;10.30;86.10;;;;;;5109988;27;19924;-58
2024/01/03 10:16:48;;;;;;;;;;;10.30;85.90;;;;;;5105800;27;19932;-59
2024/01/03 10:19:26;;;;;;;;;;;10.20;85.90;;;;;;5110009;27;20035;-59
2024/01/03 10:22:02;;;;;;;;;;;10.30;85.90;;;;;;5109474;27;19935;-56
2024/01/03 10:24:41;;;;;;;;;;;10.30;86.00;;;;;;5110969;27;19927;-59
2024/01/03 10:27:15;;;;;;;;;;;10.30;86.00;;;;;;5107559;27;19997;-59
2024/01/03 10:29:49;;;;;;;;;;;10.30;85.60;;;;;;5109762;28;19956;-58
2024/01/03 10:32:23;;;;;;;;;;;10.30;85.40;;;;;;5107673;28;19924;-59
2024/01/03 10:35:12;;;;;;;;;;;10.30;85.40;;;;;;5109717;28;20000;-71
2024/01/03 10:37:46;;;;;;;;;;;10.40;85.30;;;;;;5108037;28;19942;-70
2024/01/03 10:40:19;;;;;;;;;;;10.40;85.20;;;;;;5109592;28;19931;-71
2024/01/03 10:42:52;;;;;;;;;;;10.40;85.20;;;;;;5110176;28;19935;-70
2024/01/03 10:45:26;;;;;;;;;;;10.50;85.10;;;;;;5110673;28;19931;-70
2024/01/03 10:47:58;;;;;;;;;;;10.50;84.80;;;;;;5109351;27;20027;-71
2024/01/03 10:50:34;;;;;;;;;;;10.60;84.70;;;;;;5110288;28;19930;-71
2024/01/03 10:53:09;;;;;;;;;;;10.60;84.60;;;;;;5110077;27;19931;-72
2024/01/03 10:55:42;;;;;;;;;;;10.60;84.60;;;;;;5109510;28;19928;-70
2024/01/03 10:58:21;;;;;;;;;;;10.50;84.40;;;;;;5111586;28;20034;-71
2024/01/03 11:00:58;;;;;;;;;;;10.60;84.40;;;;;;5108796;28;19973;-71
2024/01/03 11:03:36;;;;;;;;;;;10.60;84.20;;;;;;5111787;28;19998;-71
2024/01/03 11:06:12;;;;;;;;;;;10.70;84.20;;;;;;5111454;28;19974;-70
2024/01/03 11:08:49;;;;;;;;;;;10.60;84.00;;;;;;5111201;28;19935;-70
2024/01/03 11:11:29;;;;;;;;;;;10.60;83.70;;;;;;5111124;28;20344;-71
2024/01/03 11:14:03;;;;;;;;;;;10.60;83.60;;;;;;5107675;28;19924;-72
2024/01/03 11:16:37;;;;;;;;;;;10.60;83.50;;;;;;5110583;28;19928;-70
2024/01/03 11:19:11;;;;;;;;;;;10.60;83.60;;;;;;5109074;28;19977;-71
2024/01/03 11:21:46;;;;;;;;;;;10.50;83.40;;;;;;5099512;27;19970;-70
2024/01/03 11:24:50;;;;;;;;;;;10.60;83.50;;;;;;5088211;28;19932;-70
2024/01/03 11:27:24;;;;;;;;;;;10.50;83.40;;;;;;5107087;28;19924;-71
2024/01/03 11:29:57;;;;;;;;;;;10.50;83.60;;;;;;5108040;28;20022;-71
2024/01/03 11:32:34;;;;;;;;;;;10.50;83.80;;;;;;5109434;28;20382;-70
2024/01/03 11:35:09;;;;;;;;;;;10.60;83.90;;;;;;5094729;28;20397;-71
2024/01/03 11:37:43;;;;;;;;;;;10.60;83.70;;;;;;5107204;27;19930;-71
2024/01/03 11:40:20;;;;;;;;;;;10.60;83.90;;;;;;5106801;28;19935;-71
2024/01/03 11:42:57;;;;;;;;;;;10.50;83.80;;;;;;5106814;28;19931;-71
2024/01/03 11:45:31;;;;;;;;;;;10.50;83.90;;;;;;5108641;27;20279;-59
2024/01/03 11:48:11;;;;;;;;;;;10.60;83.80;;;;;;5100831;27;19931;-58
2024/01/03 11:50:45;;;;;;;;;;;10.60;83.80;;;;;;5110005;28;20004;-58
2024/01/03 11:53:19;;;;;;;;;;;10.60;83.80;;;;;;5107489;27;19932;-59
2024/01/03 11:55:53;;;;;;;;;;;10.60;83.70;;;;;;5091130;28;19932;-59
2024/01/03 11:58:28;;;;;;;;;;;10.60;83.50;;;;;;5107407;28;19973;-60
2024/01/03 12:01:09;;;;;;;;;;;10.60;83.20;;;;;;5106546;27;19930;-58
2024/01/03 12:03:42;;;;;;;;;;;10.60;83.20;;;;;;5107008;28;19928;-58
2024/01/03 12:06:18;;;;;;;;;;;10.60;82.90;;;;;;5108854;27;19935;-59
2024/01/03 12:08:53;;;;;;;;;;;10.60;82.60;;;;;;5105000;28;19935;-58
2024/01/03 12:11:27;;;;;;;;;;;10.60;82.30;;;;;;5106737;27;19935;-60
2024/01/03 12:14:00;;;;;;;;;;;10.60;81.90;;;;;;5094158;28;19939;-60
2024/01/03 12:16:33;;;;;;;;;;;10.70;81.60;;;;;;5088509;28;19931;-59
2024/01/03 12:19:06;;;;;;;;;;;10.70;81.30;;;;;;5100364;28;19931;-59
2024/01/03 12:21:40;;;;;;;;;;;10.80;81.00;;;;;;5105346;28;19928;-59
2024/01/03 12:24:14;;;;;;;;;;;10.90;80.70;;;;;;5105735;27;19939;-59
2024/01/03 12:26:49;;;;;;;;;;;10.80;80.40;;;;;;5102176;28;19931;-59
2024/01/03 12:29:22;;;;;;;;;;;10.80;80.60;;;;;;5104597;28;19950;-59
2024/01/03 12:31:55;;;;;;;;;;;10.80;80.40;;;;;;5105614;28;19928;-59
2024/01/03 12:34:28;;;;;;;;;;;10.80;80.40;;;;;;5106617;27;19931;-59
2024/01/03 12:37:02;;;;;;;;;;;10.90;80.60;;;;;;5104936;28;19955;-59
2024/01/03 12:39:36;;;;;;;;;;;10.90;80.20;;;;;;5099517;28;19931;-57
2024/01/03 12:42:10;;;;;;;;;;;10.90;80.10;;;;;;5105441;28;20020;-60
2024/01/03 12:44:44;;;;;;;;;;;10.90;80.20;;;;;;5103606;28;19924;-59
2024/01/03 12:47:17;;;;;;;;;;;10.90;80.20;;;;;;5102049;28;20020;-59
2024/01/03 12:49:51;;;;;;;;;;;10.90;80.20;;;;;;5105958;27;19932;-58
2024/01/03 12:52:29;;;;;;;;;;;10.90;80.40;;;;;;5085922;28;20073;-58
2024/01/03 12:55:03;;;;;;;;;;;10.90;80.50;;;;;;5097664;28;19935;-63
2024/01/03 12:57:37;;;;;;;;;;;10.90;80.50;;;;;;5107536;28;19955;-62
2024/01/03 13:00:10;;;;;;;;;;;10.90;80.40;;;;;;5103301;28;19924;-63
2024/01/03 13:02:37;;;;;;;;;;;10.90;80.50;;;;;;5105288;28;19973;-62
2024/01/03 13:05:10;;;;;;;;;;;10.90;80.50;;;;;;5106572;27;19930;-63
2024/01/03 13:07:43;;;;;;;;;;;10.90;80.40;;;;;;5106538;28;20394;-63
2024/01/03 13:10:17;;;;;;;;;;;10.90;80.40;;;;;;5106316;28;19959;-61
2024/01/03 13:12:51;;;;;;;;;;;10.90;80.50;;;;;;5105824;28;20448;-61
2024/01/03 13:15:24;;;;;;;;;;;10.90;80.60;;;;;;5105490;28;19932;-62
2024/01/03 13:17:57;;;;;;;;;;;10.90;80.60;;;;;;5071054;28;20314;-62
2024/01/03 13:20:30;;;;;;;;;;;10.90;80.40;;;;;;5099834;28;19943;-62
2024/01/03 13:23:03;;;;;;;;;;;10.90;80.50;;;;;;5105424;28;19923;-62
2024/01/03 13:25:37;;;;;;;;;;;11.00;80.40;;;;;;5105372;28;19923;-62
2024/01/03 13:28:11;;;;;;;;;;;11.10;80.20;;;;;;5103922;28;19927;-62
2024/01/03 13:55:52;;;;;;;;;;;11.00;81.10;;;;;;5090681;27;20068;-61
2024/01/03 13:58:25;;;;;;;;;;;11.00;81.50;;;;;;5108164;28;19963;-62
2024/01/03 14:00:58;;;;;;;;;;;10.90;81.90;;;;;;5109732;27;20031;-63
2024/01/03 14:03:31;;;;;;;;;;;10.90;82.40;;;;;;5110502;28;20027;-71
2024/01/03 14:06:04;;;;;;;;;;;10.90;83.10;;;;;;5109942;28;19931;-63
2024/01/03 14:08:37;;;;;;;;;;;10.90;83.80;;;;;;5105555;28;19951;-62
2024/01/03 14:11:12;;;;;;;;;;;10.80;84.20;;;;;;5111962;27;19932;-62
2024/01/03 14:13:40;;;;;;;;;;;10.70;84.40;;;;;;5107952;27;20374;-61
2024/01/03 14:16:14;;;;;;;;;;;10.70;84.70;;;;;;5105329;28;19934;-62
2024/01/03 14:18:47;;;;;;;;;;;10.70;85.00;;;;;;5111018;27;19934;-60
2024/01/03 14:21:20;;;;;;;;;;;10.70;84.90;;;;;;5109476;28;19927;-61
2024/01/03 14:23:53;;;;;;;;;;;10.70;85.00;;;;;;5110093;28;19959;-62
2024/01/03 14:26:28;;;;;;;;;;;10.70;85.30;;;;;;5107528;28;20026;-63
2024/01/03 14:29:03;;;;;;;;;;;10.70;85.60;;;;;;5111004;28;19976;-62
2024/01/03 14:31:43;;;;;;;;;;;10.80;85.20;;;;;;5108884;28;19931;-62
2024/01/03 14:34:16;;;;;;;;;;;10.80;85.00;;;;;;5112099;27;19924;-61
2024/01/03 14:37:04;;;;;;;;;;;10.80;85.30;;;;;;5107756;28;20370;-62
2024/01/03 14:39:39;;;;;;;;;;;10.80;85.10;;;;;;5111572;28;20345;-62
2024/01/03 14:42:10;;;;;;;;;;;10.90;85.10;;;;;;5107596;27;19962;-63
2024/01/03 14:44:43;;;;;;;;;;;10.90;85.00;;;;;;5109428;28;19931;-61
2024/01/03 14:47:16;;;;;;;;;;;11.00;84.40;;;;;;5110845;28;19947;-62
2024/01/03 14:49:49;;;;;;;;;;;11.20;84.20;;;;;;5106380;28;19924;-62
2024/01/03 14:52:23;;;;;;;;;;;11.10;83.50;;;;;;5089001;28;19935;-61
2024/01/03 14:54:56;;;;;;;;;;;11.10;83.30;;;;;;5105724;28;20381;-61
2024/01/03 14:57:30;;;;;;;;;;;11.10;83.60;;;;;;5108458;28;19950;-62
2024/01/03 15:00:04;;;;;;;;;;;11.00;83.30;;;;;;5106907;28;20020;-63
2024/01/03 15:02:37;;;;;;;;;;;11.20;82.90;;;;;;5109506;28;19932;-62
2024/01/03 15:05:10;;;;;;;;;;;11.20;82.50;;;;;;5107598;28;20379;-63
2024/01/03 15:07:43;;;;;;;;;;;11.10;82.50;;;;;;5110749;28;19924;-61
2024/01/03 15:10:16;;;;;;;;;;;11.00;82.50;;;;;;5105249;28;19924;-61
2024/01/03 15:12:50;;;;;;;;;;;11.10;82.80;;;;;;5090270;27;19932;-62
2024/01/03 15:15:17;;;;;;;;;;;11.10;81.90;;;;;;5106444;28;19977;-72
2024/01/03 15:17:50;;;;;;;;;;;11.00;82.10;;;;;;5110793;28;19923;-70
2024/01/03 15:20:30;;;;;;;;;;;11.00;82.00;;;;;;5103869;28;19934;-70
2024/01/03 15:23:04;;;;;;;;;;;11.00;81.80;;;;;;5108559;27;19924;-70
2024/01/03 15:25:39;;;;;;;;;;;11.00;81.90;;;;;;5111877;28;19931;-70
2024/01/03 15:28:15;;;;;;;;;;;11.00;81.70;;;;;;5092732;28;20302;-71
2024/01/03 15:30:49;;;;;;;;;;;11.00;81.50;;;;;;5108809;28;19938;-72